sensor_id;sensor_type;location;lat;lon;timestamp;pressure;altitude;pressure_sealevel;temperature;humidity
43119;BME280;28729;49.838;8.650;2023-05-20T00:02:32;100094.84;;;11.61;87.74
43119;BME280;28729;49.838;8.650;2023-05-20T00:06:34;100101.09;;;11.56;88.32
43119;BME280;28729;49.838;8.650;2023-05-20T00:10:37;100098.59;;;11.55;89.32
43119;BME280;28729;49.838;8.650;2023-05-20T00:14:39;100098.00;;;11.53;89.70
43119;BME280;28729;49.838;8.650;2023-05-20T00:18:40;100088.31;;;11.50;90.37
43119;BME280;28729;49.838;8.650;2023-05-20T00:22:42;100090.22;;;11.50;90.28
43119;BME280;28729;49.838;8.650;2023-05-20T00:26:44;100091.56;;;11.47;90.89
43119;BME280;28729;49.838;8.650;2023-05-20T00:30:46;100094.00;;;11.44;91.41
43119;BME280;28729;49.838;8.650;2023-05-20T00:34:57;100102.28;;;11.44;91.67
43119;BME280;28729;49.838;8.650;2023-05-20T00:38:59;100090.41;;;11.43;91.26
43119;BME280;28729;49.838;8.650;2023-05-20T00:43:01;100086.94;;;11.36;92.41
43119;BME280;28729;49.838;8.650;2023-05-20T00:47:04;100085.66;;;11.27;93.79
43119;BME280;28729;49.838;8.650;2023-05-20T00:51:06;100095.53;;;11.23;93.18
43119;BME280;28729;49.838;8.650;2023-05-20T00:55:08;100087.50;;;11.21;94.25
43119;BME280;28729;49.838;8.650;2023-05-20T00:59:11;100086.66;;;11.21;95.57
43119;BME280;28729;49.838;8.650;2023-05-20T01:03:13;100083.69;;;11.22;95.27
43119;BME280;28729;49.838;8.650;2023-05-20T01:07:16;100084.72;;;11.21;95.41
43119;BME280;28729;49.838;8.650;2023-05-20T01:11:28;100081.16;;;11.21;95.43
43119;BME280;28729;49.838;8.650;2023-05-20T01:15:33;100081.16;;;11.21;95.89
43119;BME280;28729;49.838;8.650;2023-05-20T01:19:43;100067.63;;;11.19;96.55
43119;BME280;28729;49.838;8.650;2023-05-20T01:23:45;100076.63;;;11.14;97.63
43119;BME280;28729;49.838;8.650;2023-05-20T01:27:48;100072.44;;;11.12;97.97
43119;BME280;28729;49.838;8.650;2023-05-20T01:31:50;100063.22;;;11.06;99.90
43119;BME280;28729;49.838;8.650;2023-05-20T01:35:54;100069.00;;;11.05;98.31
43119;BME280;28729;49.838;8.650;2023-05-20T01:39:57;100062.06;;;11.02;98.97
43119;BME280;28729;49.838;8.650;2023-05-20T01:43:59;100059.19;;;10.97;99.77
43119;BME280;28729;49.838;8.650;2023-05-20T01:48:02;100047.31;;;10.97;100.00
43119;BME280;28729;49.838;8.650;2023-05-20T01:52:04;100043.41;;;10.92;100.00
43119;BME280;28729;49.838;8.650;2023-05-20T01:56:07;100040.31;;;10.89;100.00
43119;BME280;28729;49.838;8.650;2023-05-20T02:00:10;100039.38;;;10.83;100.00
43119;BME280;28729;49.838;8.650;2023-05-20T02:04:14;100043.13;;;10.77;100.00
43119;BME280;28729;49.838;8.650;2023-05-20T02:08:16;100045.25;;;10.75;100.00
43119;BME280;28729;49.838;8.650;2023-05-20T02:12:20;100040.84;;;10.74;100.00
43119;BME280;28729;49.838;8.650;2023-05-20T02:16:22;100030.53;;;10.69;100.00
43119;BME280;28729;49.838;8.650;2023-05-20T02:20:25;100029.09;;;10.67;100.00
43119;BME280;28729;49.838;8.650;2023-05-20T02:24:27;100030.19;;;10.66;100.00
43119;BME280;28729;49.838;8.650;2023-05-20T02:28:29;100035.81;;;10.71;100.00
43119;BME280;28729;49.838;8.650;2023-05-20T02:32:30;100031.47;;;10.75;100.00
43119;BME280;28729;49.838;8.650;2023-05-20T02:36:34;100033.75;;;10.78;100.00
43119;BME280;28729;49.838;8.650;2023-05-20T02:40:36;100034.09;;;10.82;100.00
43119;BME280;28729;49.838;8.650;2023-05-20T02:44:37;100032.75;;;10.84;100.00
43119;BME280;28729;49.838;8.650;2023-05-20T02:48:39;100027.25;;;10.84;100.00
43119;BME280;28729;49.838;8.650;2023-05-20T02:52:41;100027.84;;;10.86;100.00
43119;BME280;28729;49.838;8.650;2023-05-20T02:56:43;100024.50;;;10.84;100.00
43119;BME280;28729;49.838;8.650;2023-05-20T03:00:45;100020.91;;;10.84;100.00
43119;BME280;28729;49.838;8.650;2023-05-20T03:04:46;100010.09;;;10.82;100.00
43119;BME280;28729;49.838;8.650;2023-05-20T03:08:48;100017.22;;;10.78;100.00
43119;BME280;28729;49.838;8.650;2023-05-20T03:12:50;100014.69;;;10.77;100.00
43119;BME280;28729;49.838;8.650;2023-05-20T03:16:52;100006.69;;;10.75;100.00
43119;BME280;28729;49.838;8.650;2023-05-20T03:20:56;100008.84;;;10.73;100.00
43119;BME280;28729;49.838;8.650;2023-05-20T03:24:58;100004.91;;;10.69;100.00
43119;BME280;28729;49.838;8.650;2023-05-20T03:29:01;100009.25;;;10.65;100.00
43119;BME280;28729;49.838;8.650;2023-05-20T03:33:02;100005.28;;;10.61;100.00
43119;BME280;28729;49.838;8.650;2023-05-20T03:37:06;100010.81;;;10.61;100.00
43119;BME280;28729;49.838;8.650;2023-05-20T03:41:08;100012.72;;;10.60;100.00
43119;BME280;28729;49.838;8.650;2023-05-20T03:45:11;100007.31;;;10.65;100.00
43119;BME280;28729;49.838;8.650;2023-05-20T03:49:21;100003.31;;;10.73;100.00
43119;BME280;28729;49.838;8.650;2023-05-20T03:53:23;100007.28;;;10.77;100.00
43119;BME280;28729;49.838;8.650;2023-05-20T03:57:25;100008.44;;;10.81;100.00
43119;BME280;28729;49.838;8.650;2023-05-20T04:01:27;99999.19;;;10.87;100.00
43119;BME280;28729;49.838;8.650;2023-05-20T04:05:30;100001.66;;;11.01;100.00
43119;BME280;28729;49.838;8.650;2023-05-20T04:09:34;100008.16;;;11.11;100.00
43119;BME280;28729;49.838;8.650;2023-05-20T04:13:37;100007.59;;;11.26;100.00
43119;BME280;28729;49.838;8.650;2023-05-20T04:17:40;100002.09;;;11.43;100.00
43119;BME280;28729;49.838;8.650;2023-05-20T04:21:42;100003.44;;;11.57;100.00
43119;BME280;28729;49.838;8.650;2023-05-20T04:25:44;99999.56;;;11.75;100.00
43119;BME280;28729;49.838;8.650;2023-05-20T04:29:46;99989.03;;;11.89;100.00
43119;BME280;28729;49.838;8.650;2023-05-20T04:33:48;99993.09;;;12.03;100.00
43119;BME280;28729;49.838;8.650;2023-05-20T04:37:51;99988.56;;;12.14;100.00
43119;BME280;28729;49.838;8.650;2023-05-20T04:41:54;99992.63;;;12.28;100.00
43119;BME280;28729;49.838;8.650;2023-05-20T04:45:56;99992.22;;;12.42;100.00
43119;BME280;28729;49.838;8.650;2023-05-20T04:50:00;99985.13;;;12.51;100.00
43119;BME280;28729;49.838;8.650;2023-05-20T04:54:02;99981.47;;;12.67;100.00
43119;BME280;28729;49.838;8.650;2023-05-20T04:58:03;99981.63;;;12.83;100.00
43119;BME280;28729;49.838;8.650;2023-05-20T05:02:06;99970.19;;;13.01;100.00
43119;BME280;28729;49.838;8.650;2023-05-20T05:06:08;99967.03;;;13.19;100.00
43119;BME280;28729;49.838;8.650;2023-05-20T05:10:10;99966.09;;;13.36;100.00
43119;BME280;28729;49.838;8.650;2023-05-20T05:14:12;99978.44;;;13.55;100.00
43119;BME280;28729;49.838;8.650;2023-05-20T05:18:15;99966.38;;;13.72;100.00
43119;BME280;28729;49.838;8.650;2023-05-20T05:22:19;99963.31;;;13.73;100.00
43119;BME280;28729;49.838;8.650;2023-05-20T05:26:22;99971.38;;;13.75;100.00
43119;BME280;28729;49.838;8.650;2023-05-20T05:30:25;99969.19;;;13.82;100.00
43119;BME280;28729;49.838;8.650;2023-05-20T05:34:27;99962.88;;;13.91;100.00
43119;BME280;28729;49.838;8.650;2023-05-20T05:38:29;99967.00;;;13.89;100.00
43119;BME280;28729;49.838;8.650;2023-05-20T05:42:31;99958.69;;;13.89;100.00
43119;BME280;28729;49.838;8.650;2023-05-20T05:46:34;99956.47;;;13.81;100.00
43119;BME280;28729;49.838;8.650;2023-05-20T05:50:36;99951.22;;;13.84;100.00
43119;BME280;28729;49.838;8.650;2023-05-20T05:54:39;99952.34;;;13.88;100.00
43119;BME280;28729;49.838;8.650;2023-05-20T05:58:41;99956.00;;;13.99;100.00
43119;BME280;28729;49.838;8.650;2023-05-20T06:02:43;99963.81;;;14.12;100.00
43119;BME280;28729;49.838;8.650;2023-05-20T06:06:47;99957.25;;;14.29;100.00
43119;BME280;28729;49.838;8.650;2023-05-20T06:10:50;99949.81;;;14.40;100.00
43119;BME280;28729;49.838;8.650;2023-05-20T06:14:52;99957.03;;;14.51;99.50
43119;BME280;28729;49.838;8.650;2023-05-20T06:18:54;99946.03;;;14.71;98.74
43119;BME280;28729;49.838;8.650;2023-05-20T06:22:58;99952.75;;;14.96;98.22
43119;BME280;28729;49.838;8.650;2023-05-20T06:27:07;99948.03;;;15.07;96.79
43119;BME280;28729;49.838;8.650;2023-05-20T06:31:09;99948.31;;;15.25;96.79
43119;BME280;28729;49.838;8.650;2023-05-20T06:35:13;99949.97;;;15.32;95.55
43119;BME280;28729;49.838;8.650;2023-05-20T06:39:15;99947.22;;;15.37;95.90
43119;BME280;28729;49.838;8.650;2023-05-20T06:43:18;99946.09;;;15.53;93.91
43119;BME280;28729;49.838;8.650;2023-05-20T06:47:41;99940.25;;;15.55;93.52
43119;BME280;28729;49.838;8.650;2023-05-20T06:51:43;99934.13;;;15.63;92.41
43119;BME280;28729;49.838;8.650;2023-05-20T06:55:45;99934.13;;;15.73;93.01
43119;BME280;28729;49.838;8.650;2023-05-20T06:59:47;99932.44;;;15.82;92.51
43119;BME280;28729;49.838;8.650;2023-05-20T07:03:50;99940.22;;;15.85;92.08
43119;BME280;28729;49.838;8.650;2023-05-20T07:07:53;99934.91;;;15.94;91.69
43119;BME280;28729;49.838;8.650;2023-05-20T07:11:55;99934.91;;;15.94;92.25
43119;BME280;28729;49.838;8.650;2023-05-20T07:15:57;99935.16;;;16.03;92.41
43119;BME280;28729;49.838;8.650;2023-05-20T07:20:00;99929.63;;;16.03;91.66
43119;BME280;28729;49.838;8.650;2023-05-20T07:24:03;99924.31;;;16.11;90.66
43119;BME280;28729;49.838;8.650;2023-05-20T07:28:06;99912.28;;;16.31;89.64
43119;BME280;28729;49.838;8.650;2023-05-20T07:32:08;99912.75;;;16.49;88.54
43119;BME280;28729;49.838;8.650;2023-05-20T07:36:12;99902.78;;;16.87;88.39
43119;BME280;28729;49.838;8.650;2023-05-20T07:40:16;99911.84;;;17.03;85.09
43119;BME280;28729;49.838;8.650;2023-05-20T07:44:19;99908.22;;;17.37;84.70
43119;BME280;28729;49.838;8.650;2023-05-20T07:48:24;99921.03;;;17.67;83.51
43119;BME280;28729;49.838;8.650;2023-05-20T07:52:27;99905.63;;;17.74;81.67
43119;BME280;28729;49.838;8.650;2023-05-20T07:56:29;99909.41;;;17.89;78.89
43119;BME280;28729;49.838;8.650;2023-05-20T08:00:31;99907.34;;;17.99;81.27
43119;BME280;28729;49.838;8.650;2023-05-20T08:04:37;99904.22;;;18.25;79.60
43119;BME280;28729;49.838;8.650;2023-05-20T08:08:39;99899.72;;;18.67;78.56
43119;BME280;28729;49.838;8.650;2023-05-20T08:12:48;99886.81;;;19.28;74.93
43119;BME280;28729;49.838;8.650;2023-05-20T08:16:51;99893.13;;;19.66;72.59
43119;BME280;28729;49.838;8.650;2023-05-20T08:20:55;99884.75;;;19.80;70.35
43119;BME280;28729;49.838;8.650;2023-05-20T08:24:58;99897.47;;;19.86;72.91
43119;BME280;28729;49.838;8.650;2023-05-20T08:29:01;99892.53;;;19.97;69.85
43119;BME280;28729;49.838;8.650;2023-05-20T08:33:03;99896.13;;;20.39;69.85
43119;BME280;28729;49.838;8.650;2023-05-20T08:37:05;99883.84;;;20.99;67.10
43119;BME280;28729;49.838;8.650;2023-05-20T08:41:12;99889.72;;;21.33;61.47
43119;BME280;28729;49.838;8.650;2023-05-20T08:45:26;99887.47;;;21.44;61.73
43119;BME280;28729;49.838;8.650;2023-05-20T08:50:01;99895.88;;;21.67;62.12
43119;BME280;28729;49.838;8.650;2023-05-20T08:54:17;99891.78;;;21.73;61.27
43119;BME280;28729;49.838;8.650;2023-05-20T08:58:25;99903.31;;;22.11;58.35
43119;BME280;28729;49.838;8.650;2023-05-20T09:03:02;99890.19;;;22.20;57.31
43119;BME280;28729;49.838;8.650;2023-05-20T09:07:31;99885.25;;;21.95;57.34
43119;BME280;28729;49.838;8.650;2023-05-20T09:11:33;99889.91;;;21.68;56.39
43119;BME280;28729;49.838;8.650;2023-05-20T09:15:36;99873.50;;;21.53;57.91
43119;BME280;28729;49.838;8.650;2023-05-20T09:19:38;99873.03;;;21.51;57.31
43119;BME280;28729;49.838;8.650;2023-05-20T09:23:46;99869.31;;;21.42;58.57
43119;BME280;28729;49.838;8.650;2023-05-20T09:27:49;99869.31;;;21.42;57.38
43119;BME280;28729;49.838;8.650;2023-05-20T09:31:51;99868.09;;;21.34;58.49
43119;BME280;28729;49.838;8.650;2023-05-20T09:36:01;99871.72;;;21.34;57.00
43119;BME280;28729;49.838;8.650;2023-05-20T09:40:03;99853.75;;;21.35;58.21
43119;BME280;28729;49.838;8.650;2023-05-20T09:44:07;99869.28;;;21.64;58.18
43119;BME280;28729;49.838;8.650;2023-05-20T09:48:09;99863.94;;;21.85;58.17
43119;BME280;28729;49.838;8.650;2023-05-20T09:52:14;99855.16;;;22.18;56.80
43119;BME280;28729;49.838;8.650;2023-05-20T09:56:18;99869.41;;;22.39;56.40
43119;BME280;28729;49.838;8.650;2023-05-20T10:00:20;99866.09;;;22.37;56.30
43119;BME280;28729;49.838;8.650;2023-05-20T10:04:24;99855.53;;;21.85;56.25
43119;BME280;28729;49.838;8.650;2023-05-20T10:09:04;99866.22;;;21.43;60.35
43119;BME280;28729;49.838;8.650;2023-05-20T10:22:09;99835.69;;;21.42;58.78
43119;BME280;28729;49.838;8.650;2023-05-20T10:26:12;99845.50;;;21.30;61.58
43119;BME280;28729;49.838;8.650;2023-05-20T10:30:21;99833.53;;;21.16;60.13
43119;BME280;28729;49.838;8.650;2023-05-20T10:34:24;99840.13;;;21.74;59.72
43119;BME280;28729;49.838;8.650;2023-05-20T10:38:25;99833.09;;;21.85;58.14
43119;BME280;28729;49.838;8.650;2023-05-20T10:42:28;99832.13;;;21.90;59.11
43119;BME280;28729;49.838;8.650;2023-05-20T10:46:32;99830.03;;;22.13;58.01
43119;BME280;28729;49.838;8.650;2023-05-20T10:50:55;99823.91;;;22.02;58.05
43119;BME280;28729;49.838;8.650;2023-05-20T10:55:01;99823.22;;;21.96;57.34
43119;BME280;28729;49.838;8.650;2023-05-20T10:59:07;99824.38;;;22.04;57.94
43119;BME280;28729;49.838;8.650;2023-05-20T11:03:10;99820.66;;;22.17;57.53
43119;BME280;28729;49.838;8.650;2023-05-20T11:07:29;99816.22;;;23.29;53.56
43119;BME280;28729;49.838;8.650;2023-05-20T11:11:31;99813.13;;;23.52;52.95
43119;BME280;28729;49.838;8.650;2023-05-20T11:15:34;99796.38;;;23.17;50.73
43119;BME280;28729;49.838;8.650;2023-05-20T11:19:36;99794.72;;;23.25;53.17
43119;BME280;28729;49.838;8.650;2023-05-20T11:23:39;99788.47;;;23.96;51.66
43119;BME280;28729;49.838;8.650;2023-05-20T11:27:42;99785.72;;;24.59;48.80
43119;BME280;28729;49.838;8.650;2023-05-20T11:31:44;99778.34;;;24.54;47.61
43119;BME280;28729;49.838;8.650;2023-05-20T11:35:53;99781.50;;;24.86;47.98
43119;BME280;28729;49.838;8.650;2023-05-20T11:40:04;99786.88;;;25.12;47.27
43119;BME280;28729;49.838;8.650;2023-05-20T11:44:11;99781.91;;;24.96;45.26
43119;BME280;28729;49.838;8.650;2023-05-20T11:48:14;99772.69;;;24.75;45.84
43119;BME280;28729;49.838;8.650;2023-05-20T11:52:16;99777.63;;;24.78;46.19
43119;BME280;28729;49.838;8.650;2023-05-20T11:56:19;99777.63;;;24.78;45.45
43119;BME280;28729;49.838;8.650;2023-05-20T12:00:23;99765.31;;;24.62;45.44
43119;BME280;28729;49.838;8.650;2023-05-20T12:04:27;99760.63;;;24.24;46.16
43119;BME280;28729;49.838;8.650;2023-05-20T12:08:29;99778.31;;;24.75;46.83
43119;BME280;28729;49.838;8.650;2023-05-20T12:12:32;99761.31;;;25.17;44.16
43119;BME280;28729;49.838;8.650;2023-05-20T12:16:35;99773.38;;;25.87;42.46
43119;BME280;28729;49.838;8.650;2023-05-20T12:20:37;99762.78;;;25.97;42.49
43119;BME280;28729;49.838;8.650;2023-05-20T12:24:39;99765.72;;;26.65;43.06
43119;BME280;28729;49.838;8.650;2023-05-20T12:28:42;99750.75;;;27.53;40.70
43119;BME280;28729;49.838;8.650;2023-05-20T12:32:45;99750.09;;;27.27;39.41
43119;BME280;28729;49.838;8.650;2023-05-20T12:36:47;99742.47;;;27.00;40.15
43119;BME280;28729;49.838;8.650;2023-05-20T12:40:49;99732.06;;;27.80;39.52
43119;BME280;28729;49.838;8.650;2023-05-20T12:44:54;99727.63;;;29.34;37.63
43119;BME280;28729;49.838;8.650;2023-05-20T12:48:56;99733.19;;;29.53;36.52
43119;BME280;28729;49.838;8.650;2023-05-20T12:52:58;99733.00;;;28.03;37.94
43119;BME280;28729;49.838;8.650;2023-05-20T12:57:00;99738.78;;;26.55;40.42
43119;BME280;28729;49.838;8.650;2023-05-20T13:01:02;99729.94;;;27.45;39.68
43119;BME280;28729;49.838;8.650;2023-05-20T13:05:06;99731.59;;;29.06;36.78
43119;BME280;28729;49.838;8.650;2023-05-20T13:09:08;99745.00;;;30.62;33.80
43119;BME280;28729;49.838;8.650;2023-05-20T13:13:10;99732.84;;;30.65;33.90
43119;BME280;28729;49.838;8.650;2023-05-20T13:17:13;99728.94;;;30.16;35.19
43119;BME280;28729;49.838;8.650;2023-05-20T13:21:15;99731.66;;;30.66;35.64
43119;BME280;28729;49.838;8.650;2023-05-20T13:25:17;99724.50;;;29.92;34.62
43119;BME280;28729;49.838;8.650;2023-05-20T13:29:19;99731.53;;;28.29;36.74
43119;BME280;28729;49.838;8.650;2023-05-20T13:33:21;99728.50;;;27.19;38.86
43119;BME280;28729;49.838;8.650;2023-05-20T13:37:24;99725.09;;;26.86;39.63
43119;BME280;28729;49.838;8.650;2023-05-20T13:41:26;99713.47;;;26.19;40.65
43119;BME280;28729;49.838;8.650;2023-05-20T13:45:29;99712.28;;;26.20;41.21
43119;BME280;28729;49.838;8.650;2023-05-20T13:49:31;99723.53;;;26.32;40.77
43119;BME280;28729;49.838;8.650;2023-05-20T13:53:34;99703.75;;;25.55;42.72
43119;BME280;28729;49.838;8.650;2023-05-20T13:57:37;99695.59;;;25.04;44.85
43119;BME280;28729;49.838;8.650;2023-05-20T14:01:39;99692.47;;;25.67;43.14
43119;BME280;28729;49.838;8.650;2023-05-20T14:05:45;99684.31;;;27.15;41.10
43119;BME280;28729;49.838;8.650;2023-05-20T14:09:47;99687.63;;;29.43;38.15
43119;BME280;28729;49.838;8.650;2023-05-20T14:13:49;99679.41;;;29.87;36.16
43119;BME280;28729;49.838;8.650;2023-05-20T14:17:51;99676.06;;;28.28;37.65
43119;BME280;28729;49.838;8.650;2023-05-20T14:21:53;99669.25;;;28.48;37.44
43119;BME280;28729;49.838;8.650;2023-05-20T14:25:55;99671.72;;;28.50;37.62
43119;BME280;28729;49.838;8.650;2023-05-20T14:29:57;99672.19;;;28.36;37.67
43119;BME280;28729;49.838;8.650;2023-05-20T14:33:58;99666.38;;;28.29;37.67
43119;BME280;28729;49.838;8.650;2023-05-20T14:38:02;99664.50;;;28.75;36.98
43119;BME280;28729;49.838;8.650;2023-05-20T14:42:04;99659.81;;;28.05;38.22
43119;BME280;28729;49.838;8.650;2023-05-20T14:46:07;99653.81;;;27.56;39.05
43119;BME280;28729;49.838;8.650;2023-05-20T14:50:09;99650.66;;;27.25;39.40
43119;BME280;28729;49.838;8.650;2023-05-20T14:54:11;99643.94;;;26.70;40.98
43119;BME280;28729;49.838;8.650;2023-05-20T14:58:14;99645.91;;;26.54;41.18
43119;BME280;28729;49.838;8.650;2023-05-20T15:02:17;99655.69;;;26.56;41.27
43119;BME280;28729;49.838;8.650;2023-05-20T15:06:20;99649.09;;;26.52;41.06
43119;BME280;28729;49.838;8.650;2023-05-20T15:10:26;99640.81;;;27.19;39.92
43119;BME280;28729;49.838;8.650;2023-05-20T15:14:29;99645.50;;;28.17;37.96
43119;BME280;28729;49.838;8.650;2023-05-20T15:18:35;99635.28;;;27.42;39.57
43119;BME280;28729;49.838;8.650;2023-05-20T15:22:37;99626.16;;;26.54;40.71
43119;BME280;28729;49.838;8.650;2023-05-20T15:26:39;99620.31;;;25.41;43.81
43119;BME280;28729;49.838;8.650;2023-05-20T15:30:41;99623.13;;;25.05;45.13
43119;BME280;28729;49.838;8.650;2023-05-20T15:34:43;99617.72;;;24.87;46.04
43119;BME280;28729;49.838;8.650;2023-05-20T15:38:45;99632.41;;;24.47;46.78
43119;BME280;28729;49.838;8.650;2023-05-20T15:42:47;99641.91;;;24.22;47.66
43119;BME280;28729;49.838;8.650;2023-05-20T15:46:48;99641.94;;;24.01;48.73
43119;BME280;28729;49.838;8.650;2023-05-20T15:50:52;99645.38;;;24.06;48.18
43119;BME280;28729;49.838;8.650;2023-05-20T15:54:54;99646.78;;;23.71;49.53
43119;BME280;28729;49.838;8.650;2023-05-20T15:58:57;99650.75;;;23.40;50.46
43119;BME280;28729;49.838;8.650;2023-05-20T16:02:58;99640.78;;;23.22;51.07
43119;BME280;28729;49.838;8.650;2023-05-20T16:07:02;99640.53;;;23.35;51.83
43119;BME280;28729;49.838;8.650;2023-05-20T16:11:04;99644.13;;;23.45;51.58
43119;BME280;28729;49.838;8.650;2023-05-20T16:15:07;99641.28;;;23.24;51.44
43119;BME280;28729;49.838;8.650;2023-05-20T16:19:10;99635.88;;;23.10;52.79
43119;BME280;28729;49.838;8.650;2023-05-20T16:23:12;99631.00;;;22.81;55.48
43119;BME280;28729;49.838;8.650;2023-05-20T16:27:14;99633.72;;;22.60;55.19
43119;BME280;28729;49.838;8.650;2023-05-20T16:31:16;99633.88;;;22.55;55.35
43119;BME280;28729;49.838;8.650;2023-05-20T16:35:18;99634.75;;;22.38;56.13
43119;BME280;28729;49.838;8.650;2023-05-20T16:39:20;99640.53;;;22.15;56.34
43119;BME280;28729;49.838;8.650;2023-05-20T16:43:21;99635.56;;;21.86;58.01
43119;BME280;28729;49.838;8.650;2023-05-20T16:47:23;99650.06;;;21.62;58.68
43119;BME280;28729;49.838;8.650;2023-05-20T16:51:27;99641.28;;;21.37;59.57
43119;BME280;28729;49.838;8.650;2023-05-20T16:55:29;99640.75;;;21.27;60.11
43119;BME280;28729;49.838;8.650;2023-05-20T16:59:31;99638.56;;;21.15;60.49
43119;BME280;28729;49.838;8.650;2023-05-20T17:03:34;99652.72;;;21.10;61.53
43119;BME280;28729;49.838;8.650;2023-05-20T17:07:36;99655.16;;;21.03;62.12
43119;BME280;28729;49.838;8.650;2023-05-20T17:11:38;99653.81;;;20.91;62.60
43119;BME280;28729;49.838;8.650;2023-05-20T17:15:40;99658.16;;;20.75;63.41
43119;BME280;28729;49.838;8.650;2023-05-20T17:19:42;99658.63;;;20.68;63.74
43119;BME280;28729;49.838;8.650;2023-05-20T17:23:44;99661.25;;;20.65;63.71
43119;BME280;28729;49.838;8.650;2023-05-20T17:27:46;99664.41;;;20.72;63.88
43119;BME280;28729;49.838;8.650;2023-05-20T17:31:48;99669.78;;;20.60;66.08
43119;BME280;28729;49.838;8.650;2023-05-20T17:35:50;99668.75;;;20.56;66.35
43119;BME280;28729;49.838;8.650;2023-05-20T17:39:52;99663.81;;;20.53;66.26
43119;BME280;28729;49.838;8.650;2023-05-20T17:43:54;99666.31;;;20.40;67.41
43119;BME280;28729;49.838;8.650;2023-05-20T17:47:57;99664.94;;;20.29;67.86
43119;BME280;28729;49.838;8.650;2023-05-20T17:52:00;99667.25;;;20.13;68.17
43119;BME280;28729;49.838;8.650;2023-05-20T17:56:02;99669.69;;;20.06;68.81
43119;BME280;28729;49.838;8.650;2023-05-20T18:00:05;99663.13;;;19.88;72.76
43119;BME280;28729;49.838;8.650;2023-05-20T18:04:08;99662.84;;;19.76;71.70
43119;BME280;28729;49.838;8.650;2023-05-20T18:08:11;99664.94;;;19.70;72.62
43119;BME280;28729;49.838;8.650;2023-05-20T18:12:12;99664.41;;;19.54;74.20
43119;BME280;28729;49.838;8.650;2023-05-20T18:16:14;99666.19;;;19.37;74.56
43119;BME280;28729;49.838;8.650;2023-05-20T18:20:16;99668.28;;;19.31;74.41
43119;BME280;28729;49.838;8.650;2023-05-20T18:24:19;99666.81;;;19.20;75.97
43119;BME280;28729;49.838;8.650;2023-05-20T18:28:21;99673.00;;;19.03;77.33
43119;BME280;28729;49.838;8.650;2023-05-20T18:32:23;99667.03;;;18.96;77.38
43119;BME280;28729;49.838;8.650;2023-05-20T18:36:29;99682.94;;;18.81;80.48
43119;BME280;28729;49.838;8.650;2023-05-20T18:40:32;99671.09;;;18.71;80.56
43119;BME280;28729;49.838;8.650;2023-05-20T18:44:34;99675.72;;;18.61;80.84
43119;BME280;28729;49.838;8.650;2023-05-20T18:48:36;99675.69;;;18.48;81.96
43119;BME280;28729;49.838;8.650;2023-05-20T18:52:39;99677.00;;;18.36;82.78
43119;BME280;28729;49.838;8.650;2023-05-20T18:56:41;99681.41;;;18.24;84.88
43119;BME280;28729;49.838;8.650;2023-05-20T19:00:43;99683.53;;;18.13;84.95
43119;BME280;28729;49.838;8.650;2023-05-20T19:04:45;99688.41;;;18.02;86.63
43119;BME280;28729;49.838;8.650;2023-05-20T19:08:47;99687.97;;;17.95;87.24
43119;BME280;28729;49.838;8.650;2023-05-20T19:12:51;99681.97;;;17.88;88.29
43119;BME280;28729;49.838;8.650;2023-05-20T19:16:53;99686.25;;;17.80;87.81
43119;BME280;28729;49.838;8.650;2023-05-20T19:20:55;99686.38;;;17.70;89.71
43119;BME280;28729;49.838;8.650;2023-05-20T19:24:57;99693.97;;;17.64;89.70
43119;BME280;28729;49.838;8.650;2023-05-20T19:28:59;99695.22;;;17.53;92.43
43119;BME280;28729;49.838;8.650;2023-05-20T19:33:02;99697.53;;;17.46;91.78
43119;BME280;28729;49.838;8.650;2023-05-20T19:37:04;99697.63;;;17.41;92.73
43119;BME280;28729;49.838;8.650;2023-05-20T19:41:07;99696.03;;;17.35;93.18
43119;BME280;28729;49.838;8.650;2023-05-20T19:45:09;99703.63;;;17.29;94.16
43119;BME280;28729;49.838;8.650;2023-05-20T19:49:11;99700.06;;;17.23;97.86
43119;BME280;28729;49.838;8.650;2023-05-20T19:53:14;99698.75;;;17.16;95.25
43119;BME280;28729;49.838;8.650;2023-05-20T19:57:16;99703.53;;;17.10;95.88
43119;BME280;28729;49.838;8.650;2023-05-20T20:01:18;99705.84;;;17.03;96.38
43119;BME280;28729;49.838;8.650;2023-05-20T20:05:21;99707.28;;;17.00;97.33
43119;BME280;28729;49.838;8.650;2023-05-20T20:09:24;99714.34;;;16.93;98.04
43119;BME280;28729;49.838;8.650;2023-05-20T20:13:27;99708.75;;;16.93;98.43
43119;BME280;28729;49.838;8.650;2023-05-20T20:17:29;99708.22;;;16.91;98.79
43119;BME280;28729;49.838;8.650;2023-05-20T20:21:31;99705.47;;;16.85;100.00
43119;BME280;28729;49.838;8.650;2023-05-20T20:25:37;99704.66;;;16.85;100.00
43119;BME280;28729;49.838;8.650;2023-05-20T20:29:40;99703.59;;;16.81;100.00
43119;BME280;28729;49.838;8.650;2023-05-20T20:33:42;99700.84;;;16.76;100.00
43119;BME280;28729;49.838;8.650;2023-05-20T20:37:46;99697.25;;;16.70;100.00
43119;BME280;28729;49.838;8.650;2023-05-20T20:41:48;99701.19;;;16.69;100.00
43119;BME280;28729;49.838;8.650;2023-05-20T20:45:53;99690.91;;;16.64;100.00
43119;BME280;28729;49.838;8.650;2023-05-20T20:49:56;99696.81;;;16.58;100.00
43119;BME280;28729;49.838;8.650;2023-05-20T20:53:58;99683.78;;;16.53;100.00
43119;BME280;28729;49.838;8.650;2023-05-20T20:58:00;99684.94;;;16.47;100.00
43119;BME280;28729;49.838;8.650;2023-05-20T21:02:05;99686.66;;;16.43;100.00
43119;BME280;28729;49.838;8.650;2023-05-20T21:06:07;99688.69;;;16.32;100.00
43119;BME280;28729;49.838;8.650;2023-05-20T21:10:09;99687.66;;;16.23;100.00
43119;BME280;28729;49.838;8.650;2023-05-20T21:14:11;99686.88;;;16.17;100.00
43119;BME280;28729;49.838;8.650;2023-05-20T21:18:13;99677.72;;;16.12;100.00
43119;BME280;28729;49.838;8.650;2023-05-20T21:22:22;99668.91;;;16.05;100.00
43119;BME280;28729;49.838;8.650;2023-05-20T21:26:24;99671.19;;;15.98;100.00
43119;BME280;28729;49.838;8.650;2023-05-20T21:30:26;99659.28;;;15.92;100.00